Taiki Maru — JI3464 — position and weather

sailwx.info

Track history (hours):
 
Tides and Currents Weather Stations Pressure Air Temp Water Temp Dewpoint Dewpoint Depression Visibility Wind Speed Wind Dir Waves Ship Positions

Taiki Maru

Last reported at 2016-Sep-28 08:31 UTC. Time now 2016-Sep-28 12:01 UTC.
Position N 35°29' E 139°40'.

Length 93 m; draft 7.2 m.

Type: Cargo ship. MMSI: 431300622.

Date/timePositionNaut miles runAvg speedWind from/ knotsBaromVisibWave heightAir tempDewpointWater temp
2016-Sep-28 08:31N 35°29' E 139°40'0 0.0
2016-Sep-28 03:33N 35°29' E 139°40'2 1.8
2016-Sep-28 02:33N 35°27' E 139°41'5 4.7
2016-Sep-28 01:33N 35°23' E 139°44'0 0.0
2016-Sep-27 23:32N 35°23' E 139°44'0 0.0
2016-Sep-27 19:33N 35°23' E 139°44'0 0.0
2016-Sep-27 14:29N 35°23' E 139°44'6 6.8
2016-Sep-27 13:33N 35°17' E 139°46'  
2016-Sep-21 16:30N 34°14' E 135°08'0 0.0
2016-Sep-21 09:33N 34°14' E 135°08'0 0.0
2016-Sep-21 08:30N 34°14' E 135°08'0 0.0
2016-Sep-21 05:33N 34°14' E 135°08'0 0.0
2016-Sep-21 03:30N 34°14' E 135°08'0 0.0
2016-Sep-21 02:33N 34°14' E 135°08'9 1.0
2016-Sep-20 17:22N 34°23' E 135°08'0 0.0
2016-Sep-20 14:33N 34°23' E 135°08'0 0.0
2016-Sep-20 13:04N 34°23' E 135°08'0 0.0
2016-Sep-20 10:27N 34°23' E 135°08'0 0.0
2016-Sep-20 08:22N 34°23' E 135°08'0 0.0
2016-Sep-20 07:21N 34°23' E 135°08'0 0.0
2016-Sep-20 06:27N 34°23' E 135°08'0 0.0
2016-Sep-20 02:34N 34°23' E 135°08'0 0.0
2016-Sep-19 23:28N 34°23' E 135°08'0 0.0
2016-Sep-19 19:34N 34°23' E 135°08'0 0.0
2016-Sep-19 18:22N 34°23' E 135°08'13 7.2
2016-Sep-19 16:34N 34°36' E 135°03'11 0.5
2016-Sep-18 19:33N 34°36' E 135°16'9 2.3
2016-Sep-18 15:31N 34°40' E 135°27'0 0.0
2016-Sep-18 14:31N 34°40' E 135°27'0 0.0
2016-Sep-18 10:31N 34°40' E 135°27'0 0.0
2016-Sep-18 09:31N 34°40' E 135°27'  
Track history (hours):
 
Tides and Currents Weather Stations Pressure Air Temp Water Temp Dewpoint Dewpoint Depression Visibility Wind Speed Wind Dir Waves Ship Positions

Taiki Maru

Last reported at 2016-Sep-28 08:31 UTC. Time now 2016-Sep-28 12:01 UTC.
Position N 35°29' E 139°40'.

Length 93 m; draft 7.2 m.

Type: Cargo ship. MMSI: 431300622.

Date/timePositionNaut miles runAvg speedWind from/ knotsBaromVisibWave heightAir tempDewpointWater temp
2016-Sep-28 08:31N 35°29' E 139°40'0 0.0
2016-Sep-28 03:33N 35°29' E 139°40'2 1.8
2016-Sep-28 02:33N 35°27' E 139°41'5 4.7
2016-Sep-28 01:33N 35°23' E 139°44'0 0.0
2016-Sep-27 23:32N 35°23' E 139°44'0 0.0
2016-Sep-27 19:33N 35°23' E 139°44'0 0.0
2016-Sep-27 14:29N 35°23' E 139°44'6 6.8
2016-Sep-27 13:33N 35°17' E 139°46'  
2016-Sep-21 16:30N 34°14' E 135°08'0 0.0
2016-Sep-21 09:33N 34°14' E 135°08'0 0.0
2016-Sep-21 08:30N 34°14' E 135°08'0 0.0
2016-Sep-21 05:33N 34°14' E 135°08'0 0.0
2016-Sep-21 03:30N 34°14' E 135°08'0 0.0
2016-Sep-21 02:33N 34°14' E 135°08'9 1.0
2016-Sep-20 17:22N 34°23' E 135°08'0 0.0
2016-Sep-20 14:33N 34°23' E 135°08'0 0.0
2016-Sep-20 13:04N 34°23' E 135°08'0 0.0
2016-Sep-20 10:27N 34°23' E 135°08'0 0.0
2016-Sep-20 08:22N 34°23' E 135°08'0 0.0
2016-Sep-20 07:21N 34°23' E 135°08'0 0.0
2016-Sep-20 06:27N 34°23' E 135°08'0 0.0
2016-Sep-20 02:34N 34°23' E 135°08'0 0.0
2016-Sep-19 23:28N 34°23' E 135°08'0 0.0
2016-Sep-19 19:34N 34°23' E 135°08'0 0.0
2016-Sep-19 18:22N 34°23' E 135°08'13 7.2
2016-Sep-19 16:34N 34°36' E 135°03'11 0.5
2016-Sep-18 19:33N 34°36' E 135°16'9 2.3
2016-Sep-18 15:31N 34°40' E 135°27'0 0.0
2016-Sep-18 14:31N 34°40' E 135°27'0 0.0
2016-Sep-18 10:31N 34°40' E 135°27'0 0.0
2016-Sep-18 09:31N 34°40' E 135°27'  

Dump ship's entire track history